sensor_id;sensor_type;location;lat;lon;timestamp;pressure;altitude;pressure_sealevel;temperature;humidity
72975;BME280;61166;54.228;37.632;2022-11-20T00:00:52;99217.91;;;-2.12;nan
72975;BME280;61166;54.228;37.632;2022-11-20T00:03:19;99224.66;;;-1.71;nan
72975;BME280;61166;54.228;37.632;2022-11-20T00:05:46;99215.97;;;-1.89;nan
72975;BME280;61166;54.228;37.632;2022-11-20T00:08:13;99212.94;;;-2.04;nan
72975;BME280;61166;54.228;37.632;2022-11-20T00:10:40;99211.22;;;-2.24;nan
72975;BME280;61166;54.228;37.632;2022-11-20T00:13:07;99217.56;;;-2.38;nan
72975;BME280;61166;54.228;37.632;2022-11-20T00:15:34;99208.97;;;-2.48;nan
72975;BME280;61166;54.228;37.632;2022-11-20T00:18:00;99212.47;;;-2.49;nan
72975;BME280;61166;54.228;37.632;2022-11-20T00:20:27;99221.19;;;-2.41;nan
72975;BME280;61166;54.228;37.632;2022-11-20T00:22:53;99218.19;;;-2.46;nan
72975;BME280;61166;54.228;37.632;2022-11-20T00:25:20;99219.63;;;-2.53;nan
72975;BME280;61166;54.228;37.632;2022-11-20T00:27:47;99218.94;;;-2.55;nan
72975;BME280;61166;54.228;37.632;2022-11-20T00:30:13;99218.69;;;-2.52;nan
72975;BME280;61166;54.228;37.632;2022-11-20T00:32:41;99227.69;;;-2.46;nan
72975;BME280;61166;54.228;37.632;2022-11-20T00:35:07;99227.56;;;-2.45;nan
72975;BME280;61166;54.228;37.632;2022-11-20T00:37:34;99227.97;;;-2.40;nan
72975;BME280;61166;54.228;37.632;2022-11-20T00:40:00;99231.75;;;-2.44;nan
72975;BME280;61166;54.228;37.632;2022-11-20T00:42:27;99236.16;;;-2.35;nan
72975;BME280;61166;54.228;37.632;2022-11-20T00:44:54;99238.88;;;-2.26;nan
72975;BME280;61166;54.228;37.632;2022-11-20T00:47:20;99245.66;;;-2.25;nan
72975;BME280;61166;54.228;37.632;2022-11-20T00:49:47;99246.66;;;-2.17;nan
72975;BME280;61166;54.228;37.632;2022-11-20T00:52:13;99244.94;;;-2.07;nan
72975;BME280;61166;54.228;37.632;2022-11-20T00:54:40;99240.03;;;-2.10;nan
72975;BME280;61166;54.228;37.632;2022-11-20T00:57:06;99235.69;;;-2.09;nan
72975;BME280;61166;54.228;37.632;2022-11-20T00:59:33;99246.69;;;-2.07;nan
72975;BME280;61166;54.228;37.632;2022-11-20T01:01:59;99244.22;;;-1.78;nan
72975;BME280;61166;54.228;37.632;2022-11-20T01:04:26;99246.66;;;-1.77;nan
72975;BME280;61166;54.228;37.632;2022-11-20T01:06:53;99248.69;;;-1.80;nan
72975;BME280;61166;54.228;37.632;2022-11-20T01:09:20;99251.69;;;-1.66;nan
72975;BME280;61166;54.228;37.632;2022-11-20T01:11:47;99262.00;;;-1.66;nan
72975;BME280;61166;54.228;37.632;2022-11-20T01:14:16;99261.59;;;-1.71;nan
72975;BME280;61166;54.228;37.632;2022-11-20T01:16:47;99259.25;;;-1.83;nan
72975;BME280;61166;54.228;37.632;2022-11-20T01:19:17;99258.97;;;-1.90;nan
72975;BME280;61166;54.228;37.632;2022-11-20T01:21:45;99254.97;;;-2.04;nan
72975;BME280;61166;54.228;37.632;2022-11-20T01:24:13;99259.44;;;-2.06;nan
72975;BME280;61166;54.228;37.632;2022-11-20T01:26:42;99265.03;;;-2.01;nan
72975;BME280;61166;54.228;37.632;2022-11-20T01:29:23;99271.03;;;-1.90;nan
72975;BME280;61166;54.228;37.632;2022-11-20T01:31:50;99282.16;;;-1.90;nan
72975;BME280;61166;54.228;37.632;2022-11-20T01:34:19;99290.59;;;-1.88;nan
72975;BME280;61166;54.228;37.632;2022-11-20T01:36:46;99284.47;;;-1.87;nan
72975;BME280;61166;54.228;37.632;2022-11-20T01:39:16;99285.72;;;-1.81;nan
72975;BME280;61166;54.228;37.632;2022-11-20T01:41:44;99288.44;;;-1.83;nan
72975;BME280;61166;54.228;37.632;2022-11-20T01:44:13;99298.09;;;-1.75;nan
72975;BME280;61166;54.228;37.632;2022-11-20T01:46:58;99296.19;;;-1.73;nan
72975;BME280;61166;54.228;37.632;2022-11-20T01:49:37;99298.75;;;-1.73;nan
72975;BME280;61166;54.228;37.632;2022-11-20T01:52:27;99295.41;;;-1.74;nan
72975;BME280;61166;54.228;37.632;2022-11-20T01:55:10;99298.38;;;-1.69;nan
72975;BME280;61166;54.228;37.632;2022-11-20T01:57:39;99309.94;;;-1.63;nan
72975;BME280;61166;54.228;37.632;2022-11-20T02:00:09;99319.41;;;-1.63;nan
72975;BME280;61166;54.228;37.632;2022-11-20T02:02:37;99330.25;;;-1.70;nan
72975;BME280;61166;54.228;37.632;2022-11-20T02:05:35;99324.72;;;-1.65;nan
72975;BME280;61166;54.228;37.632;2022-11-20T02:08:04;99325.09;;;-1.70;nan
72975;BME280;61166;54.228;37.632;2022-11-20T02:10:33;99324.16;;;-1.69;nan
72975;BME280;61166;54.228;37.632;2022-11-20T02:12:59;99325.13;;;-1.60;nan
72975;BME280;61166;54.228;37.632;2022-11-20T02:15:26;99324.31;;;-1.60;nan
72975;BME280;61166;54.228;37.632;2022-11-20T02:17:56;99322.69;;;-1.61;nan
72975;BME280;61166;54.228;37.632;2022-11-20T02:20:22;99331.09;;;-1.59;nan
72975;BME280;61166;54.228;37.632;2022-11-20T02:25:47;99336.22;;;-1.69;nan
72975;BME280;61166;54.228;37.632;2022-11-20T02:28:14;99332.00;;;-1.80;nan
72975;BME280;61166;54.228;37.632;2022-11-20T02:30:41;99333.88;;;-1.82;nan
72975;BME280;61166;54.228;37.632;2022-11-20T02:33:07;99342.75;;;-1.75;nan
72975;BME280;61166;54.228;37.632;2022-11-20T02:38:02;99350.75;;;-1.78;nan
72975;BME280;61166;54.228;37.632;2022-11-20T02:40:29;99348.16;;;-1.78;nan
72975;BME280;61166;54.228;37.632;2022-11-20T02:42:56;99344.50;;;-1.75;nan
72975;BME280;61166;54.228;37.632;2022-11-20T02:45:24;99353.88;;;-1.74;nan
72975;BME280;61166;54.228;37.632;2022-11-20T02:47:51;99353.19;;;-1.67;nan
72975;BME280;61166;54.228;37.632;2022-11-20T02:50:18;99369.63;;;-1.68;nan
72975;BME280;61166;54.228;37.632;2022-11-20T02:52:45;99348.47;;;-1.61;nan
72975;BME280;61166;54.228;37.632;2022-11-20T02:55:11;99344.25;;;-1.62;nan
72975;BME280;61166;54.228;37.632;2022-11-20T02:57:38;99351.34;;;-1.55;nan
72975;BME280;61166;54.228;37.632;2022-11-20T03:00:05;99359.78;;;-1.53;nan
72975;BME280;61166;54.228;37.632;2022-11-20T03:02:32;99363.84;;;-1.50;nan
72975;BME280;61166;54.228;37.632;2022-11-20T03:04:59;99354.75;;;-1.54;nan
72975;BME280;61166;54.228;37.632;2022-11-20T03:07:25;99364.13;;;-1.53;nan
72975;BME280;61166;54.228;37.632;2022-11-20T03:09:52;99359.59;;;-1.61;nan
72975;BME280;61166;54.228;37.632;2022-11-20T03:12:19;99353.94;;;-1.55;nan
72975;BME280;61166;54.228;37.632;2022-11-20T03:14:45;99360.03;;;-1.56;nan
72975;BME280;61166;54.228;37.632;2022-11-20T03:17:18;99350.97;;;-1.50;nan
72975;BME280;61166;54.228;37.632;2022-11-20T03:19:45;99360.47;;;-1.51;nan
72975;BME280;61166;54.228;37.632;2022-11-20T03:22:11;99357.50;;;-1.46;nan
72975;BME280;61166;54.228;37.632;2022-11-20T03:24:38;99357.88;;;-1.51;nan
72975;BME280;61166;54.228;37.632;2022-11-20T03:27:04;99365.31;;;-1.57;nan
72975;BME280;61166;54.228;37.632;2022-11-20T03:29:31;99362.31;;;-1.62;nan
72975;BME280;61166;54.228;37.632;2022-11-20T03:31:57;99374.00;;;-1.58;nan
72975;BME280;61166;54.228;37.632;2022-11-20T03:34:24;99378.91;;;-1.55;nan
72975;BME280;61166;54.228;37.632;2022-11-20T03:36:50;99380.22;;;-1.61;nan
72975;BME280;61166;54.228;37.632;2022-11-20T03:39:17;99384.28;;;-1.68;nan
72975;BME280;61166;54.228;37.632;2022-11-20T03:41:44;99377.78;;;-1.62;nan
72975;BME280;61166;54.228;37.632;2022-11-20T03:44:11;99376.97;;;-1.63;nan
72975;BME280;61166;54.228;37.632;2022-11-20T03:46:38;99387.84;;;-1.59;nan
72975;BME280;61166;54.228;37.632;2022-11-20T03:49:04;99388.63;;;-1.69;nan
72975;BME280;61166;54.228;37.632;2022-11-20T03:51:33;99406.25;;;-1.74;nan
72975;BME280;61166;54.228;37.632;2022-11-20T03:54:03;99410.72;;;-1.76;nan
72975;BME280;61166;54.228;37.632;2022-11-20T03:56:32;99410.03;;;-1.78;nan
72975;BME280;61166;54.228;37.632;2022-11-20T03:59:00;99417.06;;;-1.80;nan
72975;BME280;61166;54.228;37.632;2022-11-20T04:01:36;99434.31;;;-1.80;nan
72975;BME280;61166;54.228;37.632;2022-11-20T04:04:03;99429.72;;;-1.77;nan
72975;BME280;61166;54.228;37.632;2022-11-20T04:06:34;99424.94;;;-1.81;nan
72975;BME280;61166;54.228;37.632;2022-11-20T04:09:01;99428.59;;;-1.84;nan
72975;BME280;61166;54.228;37.632;2022-11-20T04:11:31;99444.75;;;-1.82;nan
72975;BME280;61166;54.228;37.632;2022-11-20T04:14:00;99448.75;;;-1.89;nan
72975;BME280;61166;54.228;37.632;2022-11-20T04:16:30;99449.47;;;-1.87;nan
72975;BME280;61166;54.228;37.632;2022-11-20T04:18:59;99461.47;;;-1.97;nan
72975;BME280;61166;54.228;37.632;2022-11-20T04:21:26;99472.75;;;-2.09;nan
72975;BME280;61166;54.228;37.632;2022-11-20T04:23:53;99468.41;;;-2.09;nan
72975;BME280;61166;54.228;37.632;2022-11-20T04:26:22;99464.66;;;-2.05;nan
72975;BME280;61166;54.228;37.632;2022-11-20T04:28:49;99474.16;;;-2.05;nan
72975;BME280;61166;54.228;37.632;2022-11-20T04:31:18;99477.50;;;-1.93;nan
72975;BME280;61166;54.228;37.632;2022-11-20T04:33:46;99483.72;;;-1.96;nan
72975;BME280;61166;54.228;37.632;2022-11-20T04:36:18;99493.06;;;-1.95;nan
72975;BME280;61166;54.228;37.632;2022-11-20T04:38:45;99505.28;;;-1.97;nan
72975;BME280;61166;54.228;37.632;2022-11-20T04:41:17;99516.84;;;-1.91;nan
72975;BME280;61166;54.228;37.632;2022-11-20T04:43:48;99516.56;;;-2.09;nan
72975;BME280;61166;54.228;37.632;2022-11-20T04:46:16;99550.78;;;-2.18;nan
72975;BME280;61166;54.228;37.632;2022-11-20T04:48:43;99533.69;;;-2.19;nan
72975;BME280;61166;54.228;37.632;2022-11-20T04:51:10;99538.19;;;-2.33;nan
72975;BME280;61166;54.228;37.632;2022-11-20T04:53:36;99534.88;;;-2.23;nan
72975;BME280;61166;54.228;37.632;2022-11-20T04:56:06;99540.06;;;-2.35;nan
72975;BME280;61166;54.228;37.632;2022-11-20T04:58:33;99553.38;;;-2.29;nan
72975;BME280;61166;54.228;37.632;2022-11-20T05:01:09;99549.16;;;-2.30;nan
72975;BME280;61166;54.228;37.632;2022-11-20T05:03:36;99563.44;;;-2.26;nan
72975;BME280;61166;54.228;37.632;2022-11-20T05:06:09;99557.00;;;-2.21;nan
72975;BME280;61166;54.228;37.632;2022-11-20T05:08:36;99562.59;;;-2.16;nan
72975;BME280;61166;54.228;37.632;2022-11-20T05:11:04;99568.59;;;-2.26;nan
72975;BME280;61166;54.228;37.632;2022-11-20T05:13:32;99556.78;;;-2.29;nan
72975;BME280;61166;54.228;37.632;2022-11-20T05:16:15;99562.88;;;-2.30;nan
72975;BME280;61166;54.228;37.632;2022-11-20T05:18:43;99561.56;;;-2.24;nan
72975;BME280;61166;54.228;37.632;2022-11-20T05:21:10;99560.75;;;-2.25;nan
72975;BME280;61166;54.228;37.632;2022-11-20T05:23:37;99569.09;;;-2.33;nan
72975;BME280;61166;54.228;37.632;2022-11-20T05:26:04;99565.19;;;-2.27;nan
72975;BME280;61166;54.228;37.632;2022-11-20T05:28:32;99568.34;;;-2.23;nan
72975;BME280;61166;54.228;37.632;2022-11-20T05:33:33;99567.06;;;-2.18;nan
72975;BME280;61166;54.228;37.632;2022-11-20T05:36:01;99564.97;;;-2.24;nan
72975;BME280;61166;54.228;37.632;2022-11-20T05:38:28;99570.09;;;-2.13;nan
72975;BME280;61166;54.228;37.632;2022-11-20T05:40:55;99575.13;;;-2.11;nan
72975;BME280;61166;54.228;37.632;2022-11-20T05:43:31;99580.75;;;-2.06;nan
72975;BME280;61166;54.228;37.632;2022-11-20T05:45:58;99573.47;;;-2.01;nan
72975;BME280;61166;54.228;37.632;2022-11-20T05:48:25;99572.16;;;-1.95;nan
72975;BME280;61166;54.228;37.632;2022-11-20T05:50:51;99571.84;;;-2.13;nan
72975;BME280;61166;54.228;37.632;2022-11-20T05:53:18;99575.97;;;-2.22;nan
72975;BME280;61166;54.228;37.632;2022-11-20T05:55:44;99584.03;;;-2.15;nan
72975;BME280;61166;54.228;37.632;2022-11-20T05:58:11;99588.47;;;-2.06;nan
72975;BME280;61166;54.228;37.632;2022-11-20T06:00:37;99594.78;;;-1.99;nan
72975;BME280;61166;54.228;37.632;2022-11-20T06:03:04;99594.09;;;-2.01;nan
72975;BME280;61166;54.228;37.632;2022-11-20T06:05:33;99602.28;;;-1.96;nan
72975;BME280;61166;54.228;37.632;2022-11-20T06:08:00;99602.72;;;-1.91;nan
72975;BME280;61166;54.228;37.632;2022-11-20T06:10:27;99608.94;;;-1.93;nan
72975;BME280;61166;54.228;37.632;2022-11-20T06:12:57;99613.53;;;-1.97;nan
72975;BME280;61166;54.228;37.632;2022-11-20T06:15:24;99615.97;;;-1.95;nan
72975;BME280;61166;54.228;37.632;2022-11-20T06:17:54;99618.31;;;-1.92;nan
72975;BME280;61166;54.228;37.632;2022-11-20T06:20:24;99617.94;;;-1.88;nan
72975;BME280;61166;54.228;37.632;2022-11-20T06:22:51;99611.50;;;-1.82;nan
72975;BME280;61166;54.228;37.632;2022-11-20T06:25:17;99623.78;;;-1.75;nan
72975;BME280;61166;54.228;37.632;2022-11-20T06:27:44;99619.56;;;-1.76;nan
72975;BME280;61166;54.228;37.632;2022-11-20T06:30:11;99628.38;;;-1.89;nan
72975;BME280;61166;54.228;37.632;2022-11-20T06:32:38;99632.03;;;-2.03;nan
72975;BME280;61166;54.228;37.632;2022-11-20T06:35:04;99641.66;;;-2.16;nan
72975;BME280;61166;54.228;37.632;2022-11-20T06:37:31;99650.19;;;-2.05;nan
72975;BME280;61166;54.228;37.632;2022-11-20T06:39:58;99656.84;;;-1.91;nan
72975;BME280;61166;54.228;37.632;2022-11-20T06:42:24;99652.88;;;-1.84;nan
72975;BME280;61166;54.228;37.632;2022-11-20T06:44:51;99652.97;;;-1.85;nan
72975;BME280;61166;54.228;37.632;2022-11-20T06:47:17;99643.03;;;-1.90;nan
72975;BME280;61166;54.228;37.632;2022-11-20T06:49:44;99657.56;;;-1.89;nan
72975;BME280;61166;54.228;37.632;2022-11-20T06:52:11;99656.97;;;-1.81;nan
72975;BME280;61166;54.228;37.632;2022-11-20T06:54:37;99657.16;;;-1.73;nan
72975;BME280;61166;54.228;37.632;2022-11-20T06:57:04;99659.56;;;-1.60;nan
72975;BME280;61166;54.228;37.632;2022-11-20T06:59:30;99665.16;;;-1.44;nan
72975;BME280;61166;54.228;37.632;2022-11-20T07:01:57;99664.00;;;-1.51;nan
72975;BME280;61166;54.228;37.632;2022-11-20T07:04:23;99661.88;;;-1.46;nan
72975;BME280;61166;54.228;37.632;2022-11-20T07:06:50;99667.25;;;-1.38;nan
72975;BME280;61166;54.228;37.632;2022-11-20T07:09:17;99667.28;;;-1.49;nan
72975;BME280;61166;54.228;37.632;2022-11-20T07:11:44;99670.31;;;-1.44;nan
72975;BME280;61166;54.228;37.632;2022-11-20T07:14:11;99669.25;;;-1.42;nan
72975;BME280;61166;54.228;37.632;2022-11-20T07:16:37;99676.16;;;-1.42;nan
72975;BME280;61166;54.228;37.632;2022-11-20T07:19:04;99676.84;;;-1.40;nan
72975;BME280;61166;54.228;37.632;2022-11-20T07:21:31;99680.38;;;-1.41;nan
72975;BME280;61166;54.228;37.632;2022-11-20T07:23:57;99698.47;;;-1.52;nan
72975;BME280;61166;54.228;37.632;2022-11-20T07:26:24;99702.31;;;-1.47;nan
72975;BME280;61166;54.228;37.632;2022-11-20T07:28:50;99707.59;;;-1.48;nan
72975;BME280;61166;54.228;37.632;2022-11-20T07:31:17;99718.44;;;-1.66;nan
72975;BME280;61166;54.228;37.632;2022-11-20T07:33:45;99736.72;;;-1.69;nan
72975;BME280;61166;54.228;37.632;2022-11-20T07:36:12;99743.75;;;-1.71;nan
72975;BME280;61166;54.228;37.632;2022-11-20T07:38:38;99746.59;;;-1.74;nan
72975;BME280;61166;54.228;37.632;2022-11-20T07:41:05;99757.94;;;-1.65;nan
72975;BME280;61166;54.228;37.632;2022-11-20T07:43:31;99760.84;;;-1.58;nan
72975;BME280;61166;54.228;37.632;2022-11-20T07:46:05;99758.63;;;-1.63;nan
72975;BME280;61166;54.228;37.632;2022-11-20T07:48:31;99755.28;;;-1.75;nan
72975;BME280;61166;54.228;37.632;2022-11-20T07:50:58;99761.72;;;-1.91;nan
72975;BME280;61166;54.228;37.632;2022-11-20T07:53:24;99766.41;;;-1.96;nan
72975;BME280;61166;54.228;37.632;2022-11-20T07:55:51;99762.06;;;-2.07;nan
72975;BME280;61166;54.228;37.632;2022-11-20T07:58:19;99757.84;;;-2.08;nan
72975;BME280;61166;54.228;37.632;2022-11-20T08:00:46;99749.41;;;-1.99;nan
72975;BME280;61166;54.228;37.632;2022-11-20T08:03:12;99761.84;;;-2.04;nan
72975;BME280;61166;54.228;37.632;2022-11-20T08:05:39;99765.81;;;-2.00;nan
72975;BME280;61166;54.228;37.632;2022-11-20T08:08:05;99764.06;;;-2.00;nan
72975;BME280;61166;54.228;37.632;2022-11-20T08:10:34;99768.88;;;-2.06;nan
72975;BME280;61166;54.228;37.632;2022-11-20T08:13:01;99761.38;;;-2.09;nan
72975;BME280;61166;54.228;37.632;2022-11-20T08:15:27;99758.69;;;-1.96;nan
72975;BME280;61166;54.228;37.632;2022-11-20T08:18:03;99761.13;;;-1.84;nan
72975;BME280;61166;54.228;37.632;2022-11-20T08:20:50;99765.47;;;-1.84;nan
72975;BME280;61166;54.228;37.632;2022-11-20T08:23:16;99767.59;;;-1.78;nan
72975;BME280;61166;54.228;37.632;2022-11-20T08:25:43;99764.78;;;-1.86;nan
72975;BME280;61166;54.228;37.632;2022-11-20T08:28:09;99764.41;;;-1.82;nan
72975;BME280;61166;54.228;37.632;2022-11-20T08:30:47;99771.56;;;-1.85;nan
72975;BME280;61166;54.228;37.632;2022-11-20T08:33:13;99766.75;;;-1.79;nan
72975;BME280;61166;54.228;37.632;2022-11-20T08:35:40;99770.03;;;-1.88;nan
72975;BME280;61166;54.228;37.632;2022-11-20T08:38:07;99777.44;;;-1.94;nan
72975;BME280;61166;54.228;37.632;2022-11-20T08:40:33;99777.19;;;-1.91;nan
72975;BME280;61166;54.228;37.632;2022-11-20T08:43:00;99786.22;;;-1.97;nan
72975;BME280;61166;54.228;37.632;2022-11-20T08:45:27;99790.44;;;-1.96;nan
72975;BME280;61166;54.228;37.632;2022-11-20T08:48:00;99797.44;;;-2.09;nan
72975;BME280;61166;54.228;37.632;2022-11-20T08:50:28;99799.19;;;-2.10;nan
72975;BME280;61166;54.228;37.632;2022-11-20T08:52:54;99797.44;;;-2.09;nan
72975;BME280;61166;54.228;37.632;2022-11-20T08:55:21;99802.13;;;-2.14;nan
72975;BME280;61166;54.228;37.632;2022-11-20T08:57:47;99811.84;;;-2.07;nan
72975;BME280;61166;54.228;37.632;2022-11-20T09:00:16;99802.84;;;-2.01;nan
72975;BME280;61166;54.228;37.632;2022-11-20T09:02:43;99801.91;;;-2.00;nan
72975;BME280;61166;54.228;37.632;2022-11-20T09:05:10;99809.75;;;-2.13;nan
72975;BME280;61166;54.228;37.632;2022-11-20T09:07:36;99809.28;;;-2.07;nan
72975;BME280;61166;54.228;37.632;2022-11-20T09:10:03;99817.81;;;-2.06;nan
72975;BME280;61166;54.228;37.632;2022-11-20T09:12:49;99815.63;;;-1.88;nan
72975;BME280;61166;54.228;37.632;2022-11-20T09:15:16;99806.84;;;-1.86;nan
72975;BME280;61166;54.228;37.632;2022-11-20T09:17:53;99810.34;;;-1.87;nan
72975;BME280;61166;54.228;37.632;2022-11-20T09:20:20;99807.28;;;-2.03;nan
72975;BME280;61166;54.228;37.632;2022-11-20T09:22:47;99811.84;;;-2.07;nan
72975;BME280;61166;54.228;37.632;2022-11-20T09:25:14;99817.81;;;-2.06;nan
72975;BME280;61166;54.228;37.632;2022-11-20T09:27:40;99810.06;;;-2.28;nan
72975;BME280;61166;54.228;37.632;2022-11-20T09:30:09;99813.81;;;-2.21;nan
72975;BME280;61166;54.228;37.632;2022-11-20T09:32:38;99820.19;;;-2.03;nan
72975;BME280;61166;54.228;37.632;2022-11-20T09:35:05;99839.19;;;-1.82;nan
72975;BME280;61166;54.228;37.632;2022-11-20T09:37:32;99833.56;;;-1.76;nan
72975;BME280;61166;54.228;37.632;2022-11-20T09:39:58;99832.25;;;-1.70;nan
72975;BME280;61166;54.228;37.632;2022-11-20T09:42:40;99832.84;;;-1.78;nan
72975;BME280;61166;54.228;37.632;2022-11-20T09:55:39;99867.91;;;-1.75;nan
72975;BME280;61166;54.228;37.632;2022-11-20T09:58:12;99859.09;;;-1.84;nan
72975;BME280;61166;54.228;37.632;2022-11-20T10:00:40;99858.53;;;-1.76;nan
72975;BME280;61166;54.228;37.632;2022-11-20T10:03:37;99852.28;;;-1.96;nan
72975;BME280;61166;54.228;37.632;2022-11-20T10:06:12;99861.91;;;-1.98;nan
72975;BME280;61166;54.228;37.632;2022-11-20T10:08:45;99864.00;;;-1.92;nan
72975;BME280;61166;54.228;37.632;2022-11-20T10:14:52;99846.91;;;-1.82;nan
72975;BME280;61166;54.228;37.632;2022-11-20T10:31:34;99826.03;;;-1.68;nan
72975;BME280;61166;54.228;37.632;2022-11-20T10:34:33;99827.56;;;-1.43;nan
72975;BME280;61166;54.228;37.632;2022-11-20T10:37:26;99842.78;;;-1.40;nan
72975;BME280;61166;54.228;37.632;2022-11-20T10:42:44;99839.16;;;-1.26;nan
72975;BME280;61166;54.228;37.632;2022-11-20T10:48:08;99840.09;;;-1.27;nan
72975;BME280;61166;54.228;37.632;2022-11-20T10:50:39;99840.78;;;-1.25;nan
72975;BME280;61166;54.228;37.632;2022-11-20T10:55:59;99849.94;;;-1.32;nan
72975;BME280;61166;54.228;37.632;2022-11-20T11:01:21;99851.22;;;-1.38;nan
72975;BME280;61166;54.228;37.632;2022-11-20T11:03:48;99857.91;;;-1.46;nan
72975;BME280;61166;54.228;37.632;2022-11-20T11:06:35;99855.34;;;-1.46;nan
72975;BME280;61166;54.228;37.632;2022-11-20T11:09:37;99860.84;;;-1.40;nan
72975;BME280;61166;54.228;37.632;2022-11-20T11:12:09;99860.50;;;-1.35;nan
72975;BME280;61166;54.228;37.632;2022-11-20T11:14:50;99871.16;;;-1.51;nan
72975;BME280;61166;54.228;37.632;2022-11-20T11:17:23;99876.69;;;-1.44;nan
72975;BME280;61166;54.228;37.632;2022-11-20T11:20:24;99872.22;;;-1.53;nan
72975;BME280;61166;54.228;37.632;2022-11-20T11:22:54;99875.50;;;-1.51;nan
72975;BME280;61166;54.228;37.632;2022-11-20T11:25:29;99874.22;;;-1.68;nan
72975;BME280;61166;54.228;37.632;2022-11-20T11:27:59;99882.06;;;-1.70;nan
72975;BME280;61166;54.228;37.632;2022-11-20T11:30:27;99868.81;;;-1.65;nan
72975;BME280;61166;54.228;37.632;2022-11-20T11:33:05;99862.25;;;-1.69;nan
72975;BME280;61166;54.228;37.632;2022-11-20T11:35:32;99868.00;;;-1.88;nan
72975;BME280;61166;54.228;37.632;2022-11-20T11:38:10;99863.81;;;-1.78;nan
72975;BME280;61166;54.228;37.632;2022-11-20T11:40:40;99872.94;;;-1.74;nan
72975;BME280;61166;54.228;37.632;2022-11-20T11:43:17;99871.53;;;-1.78;nan
72975;BME280;61166;54.228;37.632;2022-11-20T11:45:52;99866.25;;;-1.65;nan
72975;BME280;61166;54.228;37.632;2022-11-20T11:48:20;99870.47;;;-1.64;nan
72975;BME280;61166;54.228;37.632;2022-11-20T11:50:50;99871.88;;;-1.60;nan
72975;BME280;61166;54.228;37.632;2022-11-20T11:53:21;99868.25;;;-1.57;nan
72975;BME280;61166;54.228;37.632;2022-11-20T12:07:07;99863.06;;;-1.69;nan
72975;BME280;61166;54.228;37.632;2022-11-20T12:09:57;99860.50;;;-1.57;nan
72975;BME280;61166;54.228;37.632;2022-11-20T12:12:28;99857.44;;;-1.51;nan
72975;BME280;61166;54.228;37.632;2022-11-20T12:14:56;99852.88;;;-1.48;nan
72975;BME280;61166;54.228;37.632;2022-11-20T12:17:24;99855.09;;;-1.54;nan
72975;BME280;61166;54.228;37.632;2022-11-20T12:19:51;99850.88;;;-1.55;nan
72975;BME280;61166;54.228;37.632;2022-11-20T12:22:36;99872.22;;;-1.53;nan
72975;BME280;61166;54.228;37.632;2022-11-20T12:41:59;99875.38;;;-1.50;nan
72975;BME280;61166;54.228;37.632;2022-11-20T12:44:41;99870.47;;;-1.75;nan
72975;BME280;61166;54.228;37.632;2022-11-20T12:47:32;99879.00;;;-1.97;nan
72975;BME280;61166;54.228;37.632;2022-11-20T12:50:04;99890.31;;;-2.11;nan
72975;BME280;61166;54.228;37.632;2022-11-20T12:55:39;99899.84;;;-2.00;nan
72975;BME280;61166;54.228;37.632;2022-11-20T13:01:21;99881.84;;;-1.89;nan
72975;BME280;61166;54.228;37.632;2022-11-20T13:03:54;99888.84;;;-1.91;nan
72975;BME280;61166;54.228;37.632;2022-11-20T13:06:24;99890.94;;;-1.96;nan
72975;BME280;61166;54.228;37.632;2022-11-20T13:08:54;99895.88;;;-1.93;nan
72975;BME280;61166;54.228;37.632;2022-11-20T13:17:39;99889.31;;;-1.97;nan
72975;BME280;61166;54.228;37.632;2022-11-20T13:20:14;99893.72;;;-2.10;nan
72975;BME280;61166;54.228;37.632;2022-11-20T13:22:49;99890.69;;;-2.04;nan
72975;BME280;61166;54.228;37.632;2022-11-20T13:25:29;99883.81;;;-2.39;nan
72975;BME280;61166;54.228;37.632;2022-11-20T13:28:03;99887.22;;;-2.27;nan
72975;BME280;61166;54.228;37.632;2022-11-20T13:30:31;99887.34;;;-2.40;nan
72975;BME280;61166;54.228;37.632;2022-11-20T13:33:08;99881.16;;;-2.61;nan
72975;BME280;61166;54.228;37.632;2022-11-20T13:35:40;99885.41;;;-2.49;nan
72975;BME280;61166;54.228;37.632;2022-11-20T13:38:12;99888.00;;;-2.49;nan
72975;BME280;61166;54.228;37.632;2022-11-20T13:41:00;99895.66;;;-2.60;nan
72975;BME280;61166;54.228;37.632;2022-11-20T13:43:42;99914.63;;;-2.37;nan
72975;BME280;61166;54.228;37.632;2022-11-20T13:46:13;99927.31;;;-2.23;nan
72975;BME280;61166;54.228;37.632;2022-11-20T13:48:45;99930.03;;;-2.13;nan
72975;BME280;61166;54.228;37.632;2022-11-20T14:02:18;99943.28;;;-2.42;nan
72975;BME280;61166;54.228;37.632;2022-11-20T14:04:48;99949.16;;;-2.40;nan
72975;BME280;61166;54.228;37.632;2022-11-20T14:07:18;99941.22;;;-2.37;nan
72975;BME280;61166;54.228;37.632;2022-11-20T14:09:56;99951.94;;;-2.43;nan
72975;BME280;61166;54.228;37.632;2022-11-20T14:12:29;99972.06;;;-2.48;nan
72975;BME280;61166;54.228;37.632;2022-11-20T14:14:56;99966.91;;;-2.48;nan
72975;BME280;61166;54.228;37.632;2022-11-20T14:17:32;99950.53;;;-2.47;nan
72975;BME280;61166;54.228;37.632;2022-11-20T14:20:02;99945.84;;;-2.66;nan
72975;BME280;61166;54.228;37.632;2022-11-20T14:22:30;99931.22;;;-2.65;nan
72975;BME280;61166;54.228;37.632;2022-11-20T14:25:14;99934.91;;;-2.56;nan
72975;BME280;61166;54.228;37.632;2022-11-20T14:27:49;99947.66;;;-2.55;nan
72975;BME280;61166;54.228;37.632;2022-11-20T14:30:20;99966.38;;;-2.40;nan
72975;BME280;61166;54.228;37.632;2022-11-20T14:32:48;99971.91;;;-2.34;nan
72975;BME280;61166;54.228;37.632;2022-11-20T14:35:45;99957.72;;;-2.28;nan
72975;BME280;61166;54.228;37.632;2022-11-20T14:38:15;99949.88;;;-2.26;nan
72975;BME280;61166;54.228;37.632;2022-11-20T14:40:43;99942.03;;;-2.25;nan
72975;BME280;61166;54.228;37.632;2022-11-20T14:43:23;99946.66;;;-2.17;nan
72975;BME280;61166;54.228;37.632;2022-11-20T14:46:07;99930.69;;;-2.22;nan
72975;BME280;61166;54.228;37.632;2022-11-20T14:48:44;99941.22;;;-2.25;nan
72975;BME280;61166;54.228;37.632;2022-11-20T14:51:37;99937.22;;;-2.29;nan
72975;BME280;61166;54.228;37.632;2022-11-20T14:54:11;99937.44;;;-2.44;nan
72975;BME280;61166;54.228;37.632;2022-11-20T14:56:38;99936.66;;;-2.33;nan
72975;BME280;61166;54.228;37.632;2022-11-20T14:59:05;99941.16;;;-2.48;nan
72975;BME280;61166;54.228;37.632;2022-11-20T15:01:34;99938.94;;;-2.65;nan
72975;BME280;61166;54.228;37.632;2022-11-20T15:04:09;99929.84;;;-2.58;nan